createdAt,value
2022-11-30T00:01:51.566Z,86.40
2022-11-30T00:04:38.771Z,63.70
2022-11-30T00:07:26.448Z,67.43
2022-11-30T00:10:15.893Z,81.97
2022-11-30T00:13:03.148Z,59.60
2022-11-30T00:15:50.122Z,65.23
2022-11-30T00:18:37.758Z,76.20
2022-11-30T00:21:24.681Z,64.30
2022-11-30T00:24:11.702Z,71.20
2022-11-30T00:26:58.644Z,61.33
2022-11-30T00:29:45.686Z,70.23
2022-11-30T00:32:32.996Z,60.63
2022-11-30T00:35:20.003Z,64.77
2022-11-30T00:38:06.976Z,60.70
2022-11-30T00:40:54.249Z,64.00
2022-11-30T00:43:41.717Z,88.93
2022-11-30T00:46:28.941Z,73.67
2022-11-30T00:49:16.013Z,72.13
2022-11-30T00:52:03.152Z,72.90
2022-11-30T00:54:50.132Z,73.80
2022-11-30T00:57:37.148Z,64.13
2022-11-30T01:00:24.141Z,65.60
2022-11-30T01:03:12.178Z,63.87
2022-11-30T01:06:06.989Z,70.83
2022-11-30T01:08:54.433Z,68.47
2022-11-30T01:11:41.478Z,80.83
2022-11-30T01:14:28.534Z,78.67
2022-11-30T01:17:15.555Z,72.50
2022-11-30T01:20:03.066Z,79.17
2022-11-30T01:22:50.139Z,61.30
2022-11-30T01:25:37.254Z,74.30
2022-11-30T01:28:24.173Z,81.20
2022-11-30T01:31:14.595Z,71.23
2022-11-30T01:34:01.680Z,80.20
2022-11-30T01:36:48.784Z,65.73
2022-11-30T01:39:35.833Z,59.63
2022-11-30T01:42:22.912Z,69.27
2022-11-30T01:45:12.891Z,54.00
2022-11-30T01:47:59.942Z,63.47
2022-11-30T01:50:46.968Z,59.67
2022-11-30T01:53:33.963Z,65.57
2022-11-30T01:56:21.017Z,67.47
2022-11-30T01:59:08.201Z,52.07
2022-11-30T02:01:55.872Z,57.50
2022-11-30T02:04:43.261Z,64.00
2022-11-30T02:07:30.257Z,60.83
2022-11-30T02:10:23.382Z,60.47
2022-11-30T02:13:34.465Z,64.70
2022-11-30T02:16:42.042Z,60.60
2022-11-30T02:20:20.027Z,63.77
2022-11-30T02:23:54.955Z,68.27
2022-11-30T02:27:15.520Z,69.43
2022-11-30T02:30:09.991Z,71.70
2022-11-30T02:33:03.328Z,77.87
2022-11-30T02:35:55.347Z,61.43
2022-11-30T02:38:42.755Z,78.70
2022-11-30T02:41:39.946Z,67.00
2022-11-30T02:44:28.409Z,76.23
2022-11-30T02:47:23.994Z,75.20
2022-11-30T02:50:16.979Z,65.13
2022-11-30T02:53:04.243Z,61.97
2022-11-30T02:55:51.389Z,79.17
2022-11-30T02:58:39.379Z,82.53
2022-11-30T03:01:26.525Z,85.27
2022-11-30T03:04:13.506Z,83.93
2022-11-30T03:07:00.724Z,84.53
2022-11-30T03:09:47.697Z,91.53
2022-11-30T03:12:34.768Z,89.17
2022-11-30T03:15:21.787Z,71.10
2022-11-30T03:18:08.777Z,72.03
2022-11-30T03:20:55.796Z,61.83
2022-11-30T03:23:42.881Z,71.53
2022-11-30T03:26:29.906Z,81.17
2022-11-30T03:29:17.158Z,58.50
2022-11-30T03:32:04.346Z,74.50
2022-11-30T03:34:51.376Z,65.30
2022-11-30T03:37:38.424Z,62.33
2022-11-30T03:40:25.340Z,48.20
2022-11-30T03:43:12.372Z,50.57
2022-11-30T03:45:59.721Z,60.57
2022-11-30T03:48:47.517Z,42.90
2022-11-30T03:51:34.780Z,53.77
2022-11-30T03:54:21.951Z,42.30
2022-11-30T03:57:14.580Z,50.83
2022-11-30T04:00:01.720Z,41.50
2022-11-30T04:02:48.770Z,42.80
2022-11-30T04:05:35.847Z,42.07
2022-11-30T04:08:23.216Z,47.13
2022-11-30T04:11:11.514Z,48.03
2022-11-30T04:13:58.684Z,48.17
2022-11-30T04:16:45.733Z,44.77
2022-11-30T04:19:32.822Z,42.27
2022-11-30T04:22:19.978Z,47.20
2022-11-30T04:25:07.694Z,45.43
2022-11-30T04:27:54.673Z,46.87
2022-11-30T04:30:42.017Z,51.03
2022-11-30T04:33:29.749Z,43.23
2022-11-30T04:36:19.937Z,48.37
2022-11-30T04:39:06.991Z,44.50
2022-11-30T04:41:54.020Z,50.70
2022-11-30T04:44:41.031Z,43.40
2022-11-30T04:47:28.032Z,46.90
2022-11-30T04:50:15.113Z,51.53
2022-11-30T04:53:02.264Z,50.23
2022-11-30T04:55:49.279Z,53.73
2022-11-30T04:58:37.007Z,49.70
2022-11-30T05:01:24.078Z,55.60
2022-11-30T05:04:11.147Z,50.87
2022-11-30T05:06:58.151Z,56.80
2022-11-30T05:09:45.146Z,49.83
2022-11-30T05:12:32.398Z,55.17
2022-11-30T05:15:20.067Z,52.43
2022-11-30T05:18:07.017Z,51.27
2022-11-30T05:20:54.129Z,48.37
2022-11-30T05:23:41.131Z,55.07
2022-11-30T05:26:28.136Z,53.70
2022-11-30T05:29:15.200Z,56.00
2022-11-30T05:32:02.453Z,55.20
2022-11-30T05:34:51.793Z,53.50
2022-11-30T05:37:39.218Z,51.87
2022-11-30T05:40:28.144Z,50.13
2022-11-30T05:43:15.126Z,52.47
2022-11-30T05:46:04.278Z,51.10
2022-11-30T05:48:51.321Z,45.30
2022-11-30T05:51:40.223Z,45.20
2022-11-30T05:54:27.274Z,47.10
2022-11-30T05:57:14.266Z,44.70
2022-11-30T06:00:01.217Z,47.40
2022-11-30T06:02:48.501Z,44.50
2022-11-30T06:05:36.597Z,44.43
2022-11-30T06:08:24.436Z,42.70
2022-11-30T06:11:11.669Z,47.60
2022-11-30T06:13:58.604Z,42.53
2022-11-30T06:16:45.650Z,45.47
2022-11-30T06:19:32.696Z,39.47
2022-11-30T06:22:19.648Z,42.03
2022-11-30T06:25:06.891Z,41.73
2022-11-30T06:27:54.256Z,40.80
2022-11-30T06:30:41.162Z,44.97
2022-11-30T06:33:28.628Z,44.43
2022-11-30T06:36:21.046Z,44.37
2022-11-30T06:39:09.331Z,42.30
2022-11-30T06:41:56.220Z,40.87
2022-11-30T06:44:43.320Z,44.07
2022-11-30T06:47:30.347Z,43.13
2022-11-30T06:50:17.573Z,41.67
2022-11-30T06:53:05.136Z,38.53
2022-11-30T06:55:52.626Z,32.83
2022-11-30T06:58:39.991Z,36.53
2022-11-30T07:01:27.080Z,42.27
2022-11-30T07:04:14.192Z,35.40
2022-11-30T07:07:01.175Z,37.63
2022-11-30T07:09:48.160Z,38.30
2022-11-30T07:12:35.781Z,40.97
2022-11-30T07:15:22.803Z,40.10
2022-11-30T07:18:10.407Z,36.30
2022-11-30T07:21:02.572Z,43.37
2022-11-30T07:24:08.786Z,45.73
2022-11-30T07:26:55.964Z,48.93
2022-11-30T07:29:42.891Z,47.13
2022-11-30T07:32:29.823Z,49.83
2022-11-30T07:35:16.996Z,47.30
2022-11-30T07:38:09.442Z,55.90
2022-11-30T07:40:58.075Z,52.40
2022-11-30T07:43:45.167Z,48.60
2022-11-30T07:46:33.644Z,52.40
2022-11-30T07:49:20.664Z,51.13
2022-11-30T07:52:08.360Z,52.23
2022-11-30T07:54:55.349Z,54.20
2022-11-30T07:57:42.314Z,51.83
2022-11-30T08:00:29.892Z,57.93
2022-11-30T08:03:16.906Z,61.97
2022-11-30T08:06:10.266Z,59.63
2022-11-30T08:09:00.268Z,60.40
2022-11-30T08:11:48.885Z,64.53
2022-11-30T08:14:56.600Z,62.27
2022-11-30T08:17:44.231Z,59.37
2022-11-30T08:20:31.288Z,72.30
2022-11-30T08:23:18.407Z,69.33
2022-11-30T08:26:07.665Z,67.30
2022-11-30T08:28:55.220Z,79.70
2022-11-30T08:31:45.596Z,79.03
2022-11-30T08:34:35.471Z,77.40
2022-11-30T08:37:24.668Z,76.93
2022-11-30T08:40:14.985Z,88.70
2022-11-30T08:43:02.352Z,75.30
2022-11-30T08:45:54.251Z,80.83
2022-11-30T08:48:46.432Z,76.17
2022-11-30T08:52:00.818Z,78.67
2022-11-30T08:54:51.002Z,74.33
2022-11-30T08:57:39.276Z,72.07
2022-11-30T09:00:29.663Z,71.10
2022-11-30T09:03:17.467Z,64.57
2022-11-30T09:06:19.499Z,73.43
2022-11-30T09:09:07.157Z,75.20
2022-11-30T09:11:54.659Z,73.47
2022-11-30T09:14:42.299Z,74.17
2022-11-30T09:17:29.520Z,68.50
2022-11-30T09:20:18.726Z,77.40
2022-11-30T09:23:06.363Z,68.17
2022-11-30T09:26:02.597Z,73.87
2022-11-30T09:28:49.728Z,75.17
2022-11-30T09:31:36.689Z,77.37
2022-11-30T09:34:23.697Z,81.13
2022-11-30T09:37:17.384Z,77.30
2022-11-30T09:40:06.371Z,74.03
2022-11-30T09:43:39.699Z,68.93
2022-11-30T09:46:37.645Z,80.13
2022-11-30T09:49:46.334Z,74.03
2022-11-30T09:52:39.268Z,74.53
2022-11-30T09:55:43.140Z,72.00
2022-11-30T09:58:44.905Z,70.07
2022-11-30T10:01:33.122Z,73.13
2022-11-30T10:04:24.140Z,68.87
2022-11-30T10:07:17.047Z,66.43
2022-11-30T10:10:33.050Z,66.17
2022-11-30T10:13:39.340Z,63.83
2022-11-30T10:16:29.292Z,59.93
2022-11-30T10:19:35.022Z,70.87
2022-11-30T10:22:28.046Z,76.97
2022-11-30T10:25:29.394Z,66.93
2022-11-30T10:28:45.475Z,69.97
2022-11-30T10:31:37.404Z,63.63
2022-11-30T10:34:45.976Z,71.87
2022-11-30T10:37:37.173Z,76.63
2022-11-30T10:40:30.949Z,64.87
2022-11-30T10:43:32.962Z,75.93
2022-11-30T10:46:43.999Z,73.67
2022-11-30T10:49:33.051Z,75.07
2022-11-30T10:52:30.874Z,67.27
2022-11-30T10:55:24.365Z,75.50
2022-11-30T10:58:38.980Z,80.43
2022-11-30T11:01:37.904Z,75.07
2022-11-30T11:04:27.624Z,66.27
2022-11-30T11:07:14.898Z,70.27
2022-11-30T11:10:02.440Z,64.00
2022-11-30T11:12:52.697Z,65.97
2022-11-30T11:15:39.663Z,69.30
2022-11-30T11:18:29.184Z,67.40
2022-11-30T11:21:19.445Z,64.97
2022-11-30T11:24:10.849Z,64.30
2022-11-30T11:26:57.861Z,69.47
2022-11-30T11:29:45.186Z,76.33
2022-11-30T11:32:32.458Z,62.40
2022-11-30T11:35:39.740Z,74.70
2022-11-30T11:38:29.580Z,66.60
2022-11-30T11:41:28.131Z,74.67
2022-11-30T11:44:27.182Z,85.57
2022-11-30T11:47:32.759Z,80.30
2022-11-30T11:51:05.035Z,79.27
2022-11-30T11:53:47.345Z,79.33
2022-11-30T11:56:38.483Z,72.07
2022-11-30T11:59:44.181Z,80.33
2022-11-30T12:02:53.003Z,78.03
2022-11-30T12:05:49.519Z,84.23
2022-11-30T12:08:47.683Z,78.80
2022-11-30T12:11:45.556Z,81.17
2022-11-30T12:14:34.311Z,74.33
2022-11-30T12:17:39.513Z,74.03
2022-11-30T12:20:49.648Z,79.40
2022-11-30T12:23:49.438Z,89.30
2022-11-30T12:27:08.758Z,86.30
2022-11-30T12:30:20.499Z,89.70
2022-11-30T12:33:44.934Z,86.33
2022-11-30T12:36:57.470Z,87.10
2022-11-30T12:39:56.553Z,95.20
2022-11-30T12:42:43.549Z,95.90
2022-11-30T12:45:44.761Z,91.33
2022-11-30T12:48:38.701Z,94.03
2022-11-30T12:52:08.012Z,91.43
2022-11-30T12:55:19.184Z,100.13
2022-11-30T12:58:19.624Z,101.43
2022-11-30T13:01:15.772Z,106.60
2022-11-30T13:04:18.101Z,108.83
2022-11-30T13:07:22.684Z,102.63
2022-11-30T13:10:12.919Z,102.00
2022-11-30T13:13:01.448Z,97.43
2022-11-30T13:15:49.956Z,93.57
2022-11-30T13:18:37.569Z,94.90
2022-11-30T13:21:29.457Z,99.60
2022-11-30T13:24:26.526Z,92.43
2022-11-30T13:27:26.889Z,90.67
2022-11-30T13:30:13.771Z,92.47
2022-11-30T13:33:38.300Z,91.93
2022-11-30T13:36:34.804Z,91.93
2022-11-30T13:39:27.017Z,99.70
2022-11-30T13:42:34.300Z,99.37
2022-11-30T13:45:35.203Z,96.43
2022-11-30T13:48:39.474Z,99.40
2022-11-30T13:51:38.345Z,111.80
2022-11-30T13:54:58.291Z,103.37
2022-11-30T13:57:45.276Z,107.93
2022-11-30T14:00:32.201Z,111.20
2022-11-30T14:06:41.628Z,102.23
2022-11-30T14:09:40.674Z,101.03
2022-11-30T14:12:44.050Z,103.37
2022-11-30T14:15:40.891Z,106.87
2022-11-30T14:18:38.421Z,111.30
2022-11-30T14:21:36.812Z,122.53
2022-11-30T14:24:24.072Z,106.23
2022-11-30T14:27:18.752Z,123.13
2022-11-30T14:30:06.709Z,98.00
2022-11-30T14:33:01.875Z,113.83
2022-11-30T14:35:55.505Z,112.00
2022-11-30T14:38:43.577Z,99.00
2022-11-30T14:41:31.352Z,105.83
2022-11-30T14:44:18.278Z,109.67
2022-11-30T14:47:26.488Z,112.03
2022-11-30T14:50:23.044Z,99.93
2022-11-30T14:53:42.269Z,107.13
2022-11-30T14:56:33.171Z,113.67
2022-11-30T14:59:45.067Z,107.23
2022-11-30T15:02:39.113Z,102.60
2022-11-30T15:05:29.304Z,98.80
2022-11-30T15:08:17.344Z,111.00
2022-11-30T15:11:06.879Z,97.60
2022-11-30T15:14:07.186Z,99.57
2022-11-30T15:16:57.157Z,98.90
2022-11-30T15:19:49.070Z,94.47
2022-11-30T15:22:36.519Z,99.53
2022-11-30T15:25:28.517Z,107.03
2022-11-30T15:28:20.919Z,110.10
2022-11-30T15:31:13.446Z,114.13
2022-11-30T15:34:00.888Z,121.63
2022-11-30T15:36:48.334Z,127.10
2022-11-30T15:39:35.522Z,109.20
2022-11-30T15:42:39.569Z,131.50
2022-11-30T15:45:36.263Z,127.63
2022-11-30T15:48:37.939Z,125.97
2022-11-30T15:51:26.378Z,139.70
2022-11-30T15:57:17.213Z,148.77
2022-11-30T16:00:16.736Z,151.70
2022-11-30T16:03:12.161Z,131.70
2022-11-30T16:06:00.860Z,118.03
2022-11-30T16:08:48.652Z,168.80
2022-11-30T16:11:35.696Z,131.50
2022-11-30T16:14:23.062Z,162.53
2022-11-30T16:17:11.134Z,135.53
2022-11-30T16:19:58.179Z,133.83
2022-11-30T16:22:47.690Z,132.20
2022-11-30T16:25:34.696Z,159.13
2022-11-30T16:28:22.661Z,117.53
2022-11-30T16:31:17.359Z,141.10
2022-11-30T16:34:04.584Z,124.10
2022-11-30T16:36:51.574Z,149.07
2022-11-30T16:39:38.590Z,136.83
2022-11-30T16:42:25.597Z,205.57
2022-11-30T16:45:24.107Z,154.43
2022-11-30T16:48:11.140Z,134.00
2022-11-30T16:50:58.438Z,166.63
2022-11-30T16:53:46.010Z,124.83
2022-11-30T16:56:34.394Z,159.97
2022-11-30T16:59:21.381Z,182.43
2022-11-30T17:02:19.311Z,173.80
2022-11-30T17:05:06.919Z,141.23
2022-11-30T17:07:54.671Z,179.33
2022-11-30T17:10:42.403Z,217.70
2022-11-30T17:13:29.433Z,134.13
2022-11-30T17:16:16.459Z,136.50
2022-11-30T17:19:04.092Z,135.27
2022-11-30T17:21:51.116Z,140.43
2022-11-30T17:24:38.060Z,127.47
2022-11-30T17:27:25.032Z,142.50
2022-11-30T17:30:14.223Z,135.57
2022-11-30T17:33:01.257Z,145.63
2022-11-30T17:35:48.427Z,168.63
2022-11-30T17:38:36.481Z,128.43
2022-11-30T17:41:24.012Z,151.80
2022-11-30T17:44:11.247Z,140.37
2022-11-30T17:46:58.240Z,123.73
2022-11-30T17:49:45.188Z,147.10
2022-11-30T17:52:32.253Z,122.53
2022-11-30T17:55:19.481Z,134.23
2022-11-30T17:58:06.652Z,125.93
2022-11-30T18:00:53.659Z,129.97
2022-11-30T18:03:40.750Z,174.50
2022-11-30T18:06:28.459Z,171.87
2022-11-30T18:09:16.243Z,151.23
2022-11-30T18:12:03.501Z,139.20
2022-11-30T18:14:51.249Z,189.27
2022-11-30T18:17:38.831Z,177.93
2022-11-30T18:20:25.866Z,162.73
2022-11-30T18:23:13.052Z,164.37
2022-11-30T18:26:00.173Z,129.90
2022-11-30T18:28:52.455Z,143.67
2022-11-30T18:31:39.412Z,155.77
2022-11-30T18:34:26.383Z,131.43
2022-11-30T18:37:13.577Z,139.07
2022-11-30T18:40:01.123Z,180.30
2022-11-30T18:42:48.624Z,128.97
2022-11-30T18:45:36.488Z,139.20
2022-11-30T18:48:23.529Z,151.53
2022-11-30T18:51:13.022Z,179.33
2022-11-30T18:54:06.324Z,180.20
2022-11-30T18:56:53.224Z,141.07
2022-11-30T18:59:40.725Z,127.10
2022-11-30T19:02:27.736Z,143.60
2022-11-30T19:05:35.428Z,172.93
2022-11-30T19:08:22.582Z,146.27
2022-11-30T19:11:11.001Z,103.20
2022-11-30T19:13:59.424Z,119.57
2022-11-30T19:16:47.308Z,80.67
2022-11-30T19:19:34.696Z,75.53
2022-11-30T19:22:21.669Z,82.37
2022-11-30T19:25:09.180Z,74.83
2022-11-30T19:27:56.280Z,77.10
2022-11-30T19:30:43.377Z,73.97
2022-11-30T19:33:30.336Z,75.60
2022-11-30T19:36:25.964Z,67.50
2022-11-30T19:39:12.988Z,60.97
2022-11-30T19:42:00.009Z,70.87
2022-11-30T19:44:47.209Z,59.77
2022-11-30T19:47:36.465Z,58.30
2022-11-30T19:50:24.434Z,52.17
2022-11-30T19:53:11.447Z,50.93
2022-11-30T19:55:58.416Z,47.97
2022-11-30T19:58:46.300Z,54.33
2022-11-30T20:01:34.511Z,47.07
2022-11-30T20:04:22.025Z,52.10
2022-11-30T20:07:08.951Z,49.47
2022-11-30T20:09:55.929Z,53.63
2022-11-30T20:12:43.036Z,50.70
2022-11-30T20:15:30.733Z,49.60
2022-11-30T20:18:17.713Z,50.87
2022-11-30T20:21:16.343Z,48.20
2022-11-30T20:24:06.687Z,46.60
2022-11-30T20:26:53.696Z,51.90
2022-11-30T20:29:43.494Z,51.93
2022-11-30T20:32:30.544Z,46.73
2022-11-30T20:35:17.826Z,53.83
2022-11-30T20:38:04.835Z,58.13
2022-11-30T20:40:51.989Z,55.00
2022-11-30T20:43:39.424Z,59.87
2022-11-30T20:46:32.127Z,56.93
2022-11-30T20:49:21.780Z,56.17
2022-11-30T20:52:09.293Z,59.27
2022-11-30T20:54:57.200Z,68.40
2022-11-30T20:57:45.214Z,87.87
2022-11-30T21:00:32.557Z,72.57
2022-11-30T21:03:19.504Z,73.57
2022-11-30T21:06:06.708Z,70.50
2022-11-30T21:08:53.757Z,92.23
2022-11-30T21:11:41.720Z,72.67
2022-11-30T21:14:28.986Z,79.67
2022-11-30T21:17:15.905Z,76.17
2022-11-30T21:20:02.945Z,77.67
2022-11-30T21:22:51.288Z,87.03
2022-11-30T21:25:38.362Z,73.27
2022-11-30T21:28:25.478Z,73.33
2022-11-30T21:31:13.085Z,81.30
2022-11-30T21:34:00.592Z,79.20
2022-11-30T21:36:48.952Z,68.47
2022-11-30T21:39:36.464Z,70.67
2022-11-30T21:42:24.324Z,66.67
2022-11-30T21:45:14.745Z,64.00
2022-11-30T21:48:02.126Z,65.07
2022-11-30T21:50:49.270Z,63.57
2022-11-30T21:53:51.143Z,67.83
2022-11-30T21:56:40.296Z,62.13
2022-11-30T21:59:27.649Z,66.03
2022-11-30T22:02:15.079Z,60.73
2022-11-30T22:05:02.136Z,60.07
2022-11-30T22:07:49.129Z,63.57
2022-11-30T22:10:37.656Z,67.73
2022-11-30T22:13:25.385Z,60.43
2022-11-30T22:16:15.844Z,61.30
2022-11-30T22:19:05.729Z,62.37
2022-11-30T22:21:54.596Z,59.33
2022-11-30T22:24:42.902Z,59.57
2022-11-30T22:27:30.392Z,68.50
2022-11-30T22:30:18.553Z,63.03
2022-11-30T22:33:06.413Z,68.73
2022-11-30T22:35:54.661Z,68.73
2022-11-30T22:38:42.792Z,78.90
2022-11-30T22:41:31.544Z,86.20
2022-11-30T22:44:19.030Z,77.20
2022-11-30T22:47:06.393Z,84.87
2022-11-30T22:49:53.429Z,75.97
2022-11-30T22:53:02.027Z,79.17
2022-11-30T22:55:48.422Z,83.07
2022-11-30T22:58:35.604Z,73.60
2022-11-30T23:01:25.272Z,87.60
2022-11-30T23:04:15.433Z,82.20
2022-11-30T23:07:02.486Z,94.20
2022-11-30T23:09:49.665Z,89.73
2022-11-30T23:12:58.371Z,93.17
2022-11-30T23:15:43.806Z,94.87
2022-11-30T23:18:33.176Z,85.10
2022-11-30T23:21:26.645Z,105.27
2022-11-30T23:24:17.040Z,97.37
2022-11-30T23:27:04.121Z,92.67
2022-11-30T23:29:51.104Z,103.97
2022-11-30T23:32:38.023Z,91.23
2022-11-30T23:35:25.350Z,102.27
2022-11-30T23:38:12.582Z,107.77
2022-11-30T23:41:11.341Z,95.20
2022-11-30T23:43:58.397Z,95.10
2022-11-30T23:46:45.475Z,95.07
2022-11-30T23:49:32.661Z,99.90
2022-11-30T23:52:19.629Z,98.07
2022-11-30T23:55:07.411Z,97.20
2022-11-30T23:57:54.416Z,88.27
